createdAt,value
2023-03-04T00:01:45.708Z,96627.81
2023-03-04T00:04:14.076Z,96632.94
2023-03-04T00:06:42.317Z,96632.22
2023-03-04T00:09:12.299Z,96633.28
2023-03-04T00:11:40.622Z,96635.19
2023-03-04T00:14:09.094Z,96634.00
2023-03-04T00:16:37.469Z,96631.03
2023-03-04T00:19:06.675Z,96626.75
2023-03-04T00:21:34.974Z,96628.16
2023-03-04T00:24:03.329Z,96633.38
2023-03-04T00:26:33.283Z,96627.31
2023-03-04T00:29:01.703Z,96633.50
2023-03-04T00:31:30.247Z,96638.97
2023-03-04T00:33:58.771Z,96633.38
2023-03-04T00:36:27.243Z,96628.28
2023-03-04T00:38:55.706Z,96630.31
2023-03-04T00:41:24.122Z,96631.50
2023-03-04T00:43:54.009Z,96629.94
2023-03-04T00:46:22.645Z,96630.19
2023-03-04T00:48:51.148Z,96630.19
2023-03-04T00:51:19.548Z,96630.53
2023-03-04T00:53:48.038Z,96631.59
2023-03-04T00:56:16.350Z,96632.31
2023-03-04T00:58:44.703Z,96628.63
2023-03-04T01:01:14.455Z,96626.75
2023-03-04T01:03:42.837Z,96629.00
2023-03-04T01:06:11.314Z,96620.19
2023-03-04T01:08:40.080Z,96622.34
2023-03-04T01:11:08.384Z,96625.78
2023-03-04T01:13:36.922Z,96620.53
2023-03-04T01:16:05.940Z,96619.69
2023-03-04T01:18:36.169Z,96619.94
2023-03-04T01:21:04.709Z,96615.41
2023-03-04T01:23:33.395Z,96618.75
2023-03-04T01:26:01.700Z,96622.69
2023-03-04T01:28:30.065Z,96619.34
2023-03-04T01:30:59.576Z,96621.13
2023-03-04T01:33:27.913Z,96622.88
2023-03-04T01:35:58.151Z,96612.03
2023-03-04T01:38:26.709Z,96616.53
2023-03-04T01:40:55.387Z,96611.31
2023-03-04T01:43:26.707Z,96617.88
2023-03-04T01:45:56.740Z,96614.66
2023-03-04T01:48:27.918Z,96615.13
2023-03-04T01:51:02.968Z,96614.16
2023-03-04T01:53:33.027Z,96606.72
2023-03-04T01:56:05.764Z,96609.34
2023-03-04T01:58:34.367Z,96600.78
2023-03-04T02:01:02.710Z,96604.38
2023-03-04T02:03:31.530Z,96598.53
2023-03-04T02:06:01.413Z,96593.66
2023-03-04T02:08:29.781Z,96586.72
2023-03-04T02:10:58.495Z,96583.63
2023-03-04T02:13:26.919Z,96584.81
2023-03-04T02:15:55.425Z,96587.84
2023-03-04T02:18:25.566Z,96587.66
2023-03-04T02:21:02.708Z,96582.59
2023-03-04T02:23:40.885Z,96579.47
2023-03-04T02:26:16.441Z,96573.53
2023-03-04T02:28:45.673Z,96570.81
2023-03-04T02:31:23.749Z,96569.75
2023-03-04T02:33:53.038Z,96569.53
2023-03-04T02:36:22.112Z,96571.28
2023-03-04T02:38:51.583Z,96563.56
2023-03-04T02:41:25.444Z,96563.44
2023-03-04T02:43:56.169Z,96562.97
2023-03-04T02:46:24.703Z,96556.91
2023-03-04T02:48:53.562Z,96568.75
2023-03-04T02:51:22.327Z,96563.13
2023-03-04T02:53:50.725Z,96562.91
2023-03-04T02:56:19.068Z,96563.53
2023-03-04T02:58:48.833Z,96554.63
2023-03-04T03:01:17.132Z,96561.53
2023-03-04T03:03:45.473Z,96559.50
2023-03-04T03:06:13.866Z,96554.19
2023-03-04T03:08:42.189Z,96561.91
2023-03-04T03:11:10.485Z,96550.75
2023-03-04T03:13:38.919Z,96568.06
2023-03-04T03:16:08.707Z,96555.00
2023-03-04T03:18:39.232Z,96564.31
2023-03-04T03:21:07.508Z,96560.53
2023-03-04T03:23:36.284Z,96565.75
2023-03-04T03:26:04.904Z,96559.75
2023-03-04T03:28:33.259Z,96569.16
2023-03-04T03:31:01.612Z,96556.47
2023-03-04T03:33:31.977Z,96557.53
2023-03-04T03:36:01.230Z,96564.63
2023-03-04T03:38:29.814Z,96562.84
2023-03-04T03:40:58.211Z,96560.25
2023-03-04T03:43:26.621Z,96561.16
2023-03-04T03:45:54.972Z,96571.75
2023-03-04T03:48:23.468Z,96566.63
2023-03-04T03:50:53.180Z,96567.56
2023-03-04T03:53:21.631Z,96570.06
2023-03-04T03:55:50.082Z,96571.13
2023-03-04T03:58:18.435Z,96566.94
2023-03-04T04:00:46.764Z,96569.13
2023-03-04T04:03:16.484Z,96562.31
2023-03-04T04:05:45.038Z,96566.13
2023-03-04T04:08:15.854Z,96569.38
2023-03-04T04:10:44.911Z,96569.03
2023-03-04T04:13:13.238Z,96570.47
2023-03-04T04:15:41.568Z,96571.28
2023-03-04T04:18:10.395Z,96565.75
2023-03-04T04:20:38.729Z,96567.09
2023-03-04T04:23:07.452Z,96573.84
2023-03-04T04:25:37.185Z,96570.16
2023-03-04T04:28:05.583Z,96569.84
2023-03-04T04:30:33.955Z,96568.78
2023-03-04T04:33:04.713Z,96571.50
2023-03-04T04:35:34.070Z,96564.38
2023-03-04T04:38:02.488Z,96565.19
2023-03-04T04:40:31.120Z,96560.84
2023-03-04T04:43:00.906Z,96567.81
2023-03-04T04:45:29.387Z,96565.44
2023-03-04T04:47:57.920Z,96565.44
2023-03-04T04:50:26.721Z,96565.56
2023-03-04T04:52:55.023Z,96573.19
2023-03-04T04:55:23.386Z,96554.75
2023-03-04T04:57:51.698Z,96559.25
2023-03-04T05:00:22.355Z,96562.13
2023-03-04T05:02:50.889Z,96563.66
2023-03-04T05:05:19.252Z,96566.50
2023-03-04T05:07:51.885Z,96561.50
2023-03-04T05:10:20.578Z,96565.06
2023-03-04T05:12:49.825Z,96566.72
2023-03-04T05:15:18.420Z,96569.13
2023-03-04T05:17:48.972Z,96569.00
2023-03-04T05:20:17.719Z,96576.81
2023-03-04T05:22:46.087Z,96567.00
2023-03-04T05:25:14.401Z,96569.28
2023-03-04T05:27:43.318Z,96573.53
2023-03-04T05:30:13.276Z,96572.47
2023-03-04T05:32:41.643Z,96560.97
2023-03-04T05:35:11.634Z,96565.75
2023-03-04T05:37:39.964Z,96575.13
2023-03-04T05:40:10.321Z,96569.69
2023-03-04T05:42:38.687Z,96575.84
2023-03-04T05:45:08.309Z,96577.41
2023-03-04T05:47:36.834Z,96574.66
2023-03-04T05:50:05.456Z,96573.63
2023-03-04T05:52:35.278Z,96574.56
2023-03-04T05:55:03.605Z,96576.13
2023-03-04T05:57:34.395Z,96572.44
2023-03-04T06:00:05.427Z,96576.00
2023-03-04T06:02:33.799Z,96583.00
2023-03-04T06:05:02.157Z,96579.47
2023-03-04T06:07:36.478Z,96585.16
2023-03-04T06:10:05.186Z,96588.38
2023-03-04T06:12:33.706Z,96588.59
2023-03-04T06:15:02.906Z,96598.69
2023-03-04T06:17:31.691Z,96591.81
2023-03-04T06:20:00.039Z,96598.56
2023-03-04T06:22:28.529Z,96602.63
2023-03-04T06:24:58.190Z,96616.50
2023-03-04T06:27:26.707Z,96616.75
2023-03-04T06:29:55.089Z,96617.59
2023-03-04T06:32:23.569Z,96624.47
2023-03-04T06:34:51.975Z,96621.03
2023-03-04T06:37:20.627Z,96626.50
2023-03-04T06:39:48.948Z,96625.63
2023-03-04T06:42:19.415Z,96623.75
2023-03-04T06:44:49.410Z,96626.34
2023-03-04T06:47:18.826Z,96631.38
2023-03-04T06:49:47.190Z,96627.56
2023-03-04T06:52:15.577Z,96633.50
2023-03-04T06:54:43.997Z,96633.75
2023-03-04T06:57:13.573Z,96633.16
2023-03-04T06:59:43.321Z,96633.00
2023-03-04T07:02:12.554Z,96629.56
2023-03-04T07:04:41.569Z,96628.66
2023-03-04T07:07:09.941Z,96636.03
2023-03-04T07:09:38.345Z,96629.41
2023-03-04T07:12:07.091Z,96633.44
2023-03-04T07:14:35.458Z,96633.91
2023-03-04T07:17:05.219Z,96639.41
2023-03-04T07:19:33.526Z,96636.94
2023-03-04T07:22:01.990Z,96641.59
2023-03-04T07:24:30.336Z,96637.19
2023-03-04T07:26:58.669Z,96644.66
2023-03-04T07:29:27.104Z,96645.16
2023-03-04T07:31:55.584Z,96645.88
2023-03-04T07:34:25.365Z,96645.66
2023-03-04T07:36:54.438Z,96650.88
2023-03-04T07:39:22.885Z,96644.47
2023-03-04T07:41:51.207Z,96648.97
2023-03-04T07:44:19.616Z,96643.03
2023-03-04T07:46:47.905Z,96642.31
2023-03-04T07:49:16.387Z,96646.13
2023-03-04T07:51:46.129Z,96642.91
2023-03-04T07:54:14.564Z,96646.97
2023-03-04T07:56:42.930Z,96659.69
2023-03-04T07:59:11.396Z,96647.19
2023-03-04T08:01:39.988Z,96643.47
2023-03-04T08:04:09.112Z,96652.53
2023-03-04T08:06:37.715Z,96651.78
2023-03-04T08:09:09.894Z,96654.63
2023-03-04T08:11:39.234Z,96653.91
2023-03-04T08:14:09.227Z,96647.06
2023-03-04T08:16:37.621Z,96647.53
2023-03-04T08:19:07.244Z,96646.00
2023-03-04T08:21:36.313Z,96645.16
2023-03-04T08:24:08.610Z,96652.31
2023-03-04T08:26:43.618Z,96655.31
2023-03-04T08:29:13.949Z,96646.47
2023-03-04T08:31:48.613Z,96652.47
2023-03-04T08:34:18.353Z,96654.56
2023-03-04T08:36:46.789Z,96659.31
2023-03-04T08:39:17.366Z,96654.91
2023-03-04T08:41:48.189Z,96650.88
2023-03-04T08:44:16.972Z,96656.50
2023-03-04T08:46:45.396Z,96652.06
2023-03-04T08:49:14.664Z,96646.00
2023-03-04T08:51:44.702Z,96648.75
2023-03-04T08:54:13.417Z,96649.97
2023-03-04T08:56:42.055Z,96655.09
2023-03-04T08:59:11.889Z,96647.94
2023-03-04T09:01:40.214Z,96649.34
2023-03-04T09:04:08.629Z,96649.66
2023-03-04T09:06:37.177Z,96649.03
2023-03-04T09:09:06.159Z,96649.38
2023-03-04T09:11:34.764Z,96650.66
2023-03-04T09:14:03.094Z,96655.16
2023-03-04T09:16:33.047Z,96644.72
2023-03-04T09:19:01.770Z,96642.28
2023-03-04T09:21:30.143Z,96647.06
2023-03-04T09:23:58.477Z,96640.72
2023-03-04T09:26:29.166Z,96635.22
2023-03-04T09:28:59.882Z,96637.56
2023-03-04T09:31:29.612Z,96633.59
2023-03-04T09:34:00.558Z,96627.81
2023-03-04T09:36:29.017Z,96634.22
2023-03-04T09:39:00.677Z,96632.75
2023-03-04T09:41:37.928Z,96629.72
2023-03-04T09:44:15.411Z,96627.81
2023-03-04T09:46:46.226Z,96619.81
2023-03-04T09:49:17.455Z,96623.81
2023-03-04T09:51:54.755Z,96622.03
2023-03-04T09:54:35.086Z,96619.97
2023-03-04T09:57:21.280Z,96614.19
2023-03-04T09:59:57.843Z,96609.66
2023-03-04T10:02:36.453Z,96618.31
2023-03-04T10:05:08.909Z,96614.72
2023-03-04T10:07:41.850Z,96611.16
2023-03-04T10:10:16.667Z,96614.31
2023-03-04T10:12:49.314Z,96610.31
2023-03-04T10:15:28.266Z,96611.31
2023-03-04T10:18:02.610Z,96603.84
2023-03-04T10:20:45.507Z,96603.03
2023-03-04T10:23:19.465Z,96593.09
2023-03-04T10:25:53.959Z,96587.28
2023-03-04T10:28:27.509Z,96590.91
2023-03-04T10:31:01.564Z,96581.31
2023-03-04T10:33:31.669Z,96583.38
2023-03-04T10:36:06.429Z,96582.34
2023-03-04T10:38:38.199Z,96582.59
2023-03-04T10:41:14.754Z,96581.44
2023-03-04T10:43:45.226Z,96582.88
2023-03-04T10:46:13.932Z,96582.03
2023-03-04T10:48:44.939Z,96578.44
2023-03-04T10:51:21.527Z,96580.31
2023-03-04T10:53:52.963Z,96575.38
2023-03-04T10:56:39.045Z,96570.28
2023-03-04T10:59:41.708Z,96569.16
2023-03-04T11:02:20.720Z,96560.44
2023-03-04T11:05:08.134Z,96557.19
2023-03-04T11:07:54.413Z,96559.09
2023-03-04T11:10:26.290Z,96553.50
2023-03-04T11:13:01.951Z,96558.09
2023-03-04T11:15:33.056Z,96552.00
2023-03-04T11:18:05.272Z,96557.44
2023-03-04T11:20:35.639Z,96555.31
2023-03-04T11:23:12.342Z,96547.19
2023-03-04T11:25:45.102Z,96547.94
2023-03-04T11:28:19.354Z,96542.47
2023-03-04T11:30:53.016Z,96538.50
2023-03-04T11:33:28.793Z,96536.88
2023-03-04T11:36:05.545Z,96530.81
2023-03-04T11:38:40.502Z,96530.38
2023-03-04T11:41:14.473Z,96531.47
2023-03-04T11:43:45.649Z,96528.13
2023-03-04T11:46:33.126Z,96525.22
2023-03-04T11:49:16.048Z,96522.00
2023-03-04T11:51:50.865Z,96523.66
2023-03-04T11:54:32.045Z,96516.94
2023-03-04T11:57:04.186Z,96518.72
2023-03-04T11:59:48.975Z,96508.41
2023-03-04T12:02:20.259Z,96515.25
2023-03-04T12:05:06.290Z,96513.31
2023-03-04T12:08:07.032Z,96504.59
2023-03-04T12:10:45.621Z,96499.91
2023-03-04T12:13:30.504Z,96497.41
2023-03-04T12:16:12.533Z,96495.81
2023-03-04T12:18:53.683Z,96495.50
2023-03-04T12:21:36.423Z,96493.44
2023-03-04T12:24:23.505Z,96488.50
2023-03-04T12:27:02.788Z,96497.75
2023-03-04T12:29:38.874Z,96483.56
2023-03-04T12:32:18.808Z,96480.09
2023-03-04T12:35:21.352Z,96475.00
2023-03-04T12:38:04.201Z,96478.00
2023-03-04T12:40:43.307Z,96470.06
2023-03-04T12:43:28.504Z,96462.78
2023-03-04T12:46:05.737Z,96475.28
2023-03-04T12:48:40.567Z,96463.41
2023-03-04T12:51:24.265Z,96470.00
2023-03-04T12:54:02.818Z,96463.22
2023-03-04T12:56:43.606Z,96453.81
2023-03-04T12:59:18.117Z,96450.19
2023-03-04T13:01:55.060Z,96451.34
2023-03-04T13:04:29.281Z,96447.53
2023-03-04T13:07:13.228Z,96447.16
2023-03-04T13:09:49.389Z,96441.06
2023-03-04T13:12:22.639Z,96440.75
2023-03-04T13:15:29.387Z,96429.16
2023-03-04T13:17:58.918Z,96429.13
2023-03-04T13:20:36.356Z,96429.75
2023-03-04T13:23:21.544Z,96432.88
2023-03-04T13:25:51.231Z,96427.94
2023-03-04T13:28:31.024Z,96413.59
2023-03-04T13:31:28.284Z,96422.06
2023-03-04T13:34:06.125Z,96418.16
2023-03-04T13:36:56.607Z,96411.25
2023-03-04T13:39:32.744Z,96409.44
2023-03-04T13:42:02.601Z,96406.31
2023-03-04T13:44:51.671Z,96403.72
2023-03-04T13:47:31.481Z,96408.50
2023-03-04T13:50:34.771Z,96399.91
2023-03-04T13:53:24.770Z,96397.41
2023-03-04T13:56:24.713Z,96388.16
2023-03-04T13:59:03.151Z,96383.66
2023-03-04T14:01:33.243Z,96391.44
2023-03-04T14:04:11.707Z,96392.28
2023-03-04T14:06:43.674Z,96392.63
2023-03-04T14:09:15.653Z,96385.31
2023-03-04T14:11:45.165Z,96386.34
2023-03-04T14:14:16.152Z,96385.50
2023-03-04T14:16:50.321Z,96382.66
2023-03-04T14:19:26.349Z,96382.00
2023-03-04T14:21:58.121Z,96378.00
2023-03-04T14:24:26.719Z,96377.66
2023-03-04T14:27:11.296Z,96376.19
2023-03-04T14:29:39.718Z,96370.94
2023-03-04T14:32:08.743Z,96367.16
2023-03-04T14:34:40.115Z,96369.94
2023-03-04T14:37:22.250Z,96376.25
2023-03-04T14:39:55.124Z,96361.06
2023-03-04T14:42:26.095Z,96367.16
2023-03-04T14:44:59.463Z,96366.81
2023-03-04T14:47:38.015Z,96370.13
2023-03-04T14:50:14.497Z,96361.53
2023-03-04T14:52:47.764Z,96361.72
2023-03-04T14:55:23.582Z,96353.47
2023-03-04T14:57:58.385Z,96358.88
2023-03-04T15:00:30.839Z,96354.75
2023-03-04T15:03:01.118Z,96348.81
2023-03-04T15:05:33.184Z,96356.25
2023-03-04T15:08:04.091Z,96359.03
2023-03-04T15:10:34.841Z,96353.75
2023-03-04T15:13:05.669Z,96356.22
2023-03-04T15:15:43.765Z,96353.91
2023-03-04T15:18:19.249Z,96346.63
2023-03-04T15:20:56.226Z,96352.63
2023-03-04T15:23:24.585Z,96362.47
2023-03-04T15:25:54.770Z,96358.44
2023-03-04T15:28:25.194Z,96357.28
2023-03-04T15:30:54.516Z,96351.28
2023-03-04T15:33:22.984Z,96358.00
2023-03-04T15:35:57.269Z,96354.66
2023-03-04T15:38:26.118Z,96356.06
2023-03-04T15:40:55.609Z,96354.03
2023-03-04T15:43:25.007Z,96360.59
2023-03-04T15:45:54.190Z,96356.25
2023-03-04T15:48:22.820Z,96363.34
2023-03-04T15:50:56.642Z,96364.28
2023-03-04T15:53:32.674Z,96366.94
2023-03-04T15:56:01.975Z,96365.97
2023-03-04T15:58:33.156Z,96368.75
2023-03-04T16:01:03.865Z,96366.78
2023-03-04T16:03:32.405Z,96364.97
2023-03-04T16:06:02.493Z,96369.09
2023-03-04T16:08:30.911Z,96368.44
2023-03-04T16:10:59.350Z,96375.66
2023-03-04T16:13:27.690Z,96387.28
2023-03-04T16:15:56.261Z,96388.06
2023-03-04T16:18:24.800Z,96387.06
2023-03-04T16:20:53.441Z,96390.81
2023-03-04T16:23:25.339Z,96395.44
2023-03-04T16:25:57.279Z,96394.22
2023-03-04T16:28:25.773Z,96400.91
2023-03-04T16:30:54.223Z,96411.53
2023-03-04T16:33:22.643Z,96414.09
2023-03-04T16:35:52.316Z,96416.78
2023-03-04T16:38:28.184Z,96420.84
2023-03-04T16:40:57.786Z,96422.25
2023-03-04T16:43:26.678Z,96416.75
2023-03-04T16:45:55.114Z,96429.28
2023-03-04T16:48:23.555Z,96432.53
2023-03-04T16:50:52.452Z,96439.66
2023-03-04T16:53:32.661Z,96440.38
2023-03-04T16:56:07.392Z,96439.28
2023-03-04T16:58:35.885Z,96442.34
2023-03-04T17:01:04.690Z,96453.00
2023-03-04T17:03:33.195Z,96458.56
2023-03-04T17:06:01.584Z,96458.97
2023-03-04T17:08:31.292Z,96457.19
2023-03-04T17:10:59.613Z,96457.63
2023-03-04T17:13:28.069Z,96467.47
2023-03-04T17:15:56.454Z,96461.09
2023-03-04T17:18:24.816Z,96469.97
2023-03-04T17:20:53.146Z,96474.00
2023-03-04T17:23:21.540Z,96476.88
2023-03-04T17:25:58.057Z,96497.78
2023-03-04T17:28:26.863Z,96494.91
2023-03-04T17:30:55.558Z,96496.28
2023-03-04T17:33:24.404Z,96506.34
2023-03-04T17:35:52.724Z,96509.53
2023-03-04T17:38:21.066Z,96508.16
2023-03-04T17:40:49.440Z,96515.34
2023-03-04T17:43:19.099Z,96516.66
2023-03-04T17:45:47.498Z,96517.91
2023-03-04T17:48:15.868Z,96526.03
2023-03-04T17:50:50.070Z,96528.66
2023-03-04T17:53:18.598Z,96541.13
2023-03-04T17:55:50.597Z,96536.50
2023-03-04T17:58:20.787Z,96542.16
2023-03-04T18:00:50.727Z,96543.69
2023-03-04T18:03:19.396Z,96544.13
2023-03-04T18:05:47.762Z,96560.69
2023-03-04T18:08:16.105Z,96562.06
2023-03-04T18:10:44.566Z,96563.41
2023-03-04T18:13:13.071Z,96560.91
2023-03-04T18:15:42.769Z,96571.41
2023-03-04T18:18:11.161Z,96563.53
2023-03-04T18:20:39.575Z,96564.88
2023-03-04T18:23:08.233Z,96566.97
2023-03-04T18:25:36.962Z,96570.91
2023-03-04T18:28:05.845Z,96565.34
2023-03-04T18:30:34.281Z,96584.47
2023-03-04T18:33:04.080Z,96578.59
2023-03-04T18:35:32.682Z,96578.34
2023-03-04T18:38:01.296Z,96584.84
2023-03-04T18:40:30.122Z,96580.91
2023-03-04T18:43:00.093Z,96585.16
2023-03-04T18:45:29.079Z,96588.63
2023-03-04T18:47:58.541Z,96592.91
2023-03-04T18:50:28.614Z,96594.72
2023-03-04T18:52:56.984Z,96603.78
2023-03-04T18:55:26.672Z,96608.69
2023-03-04T18:57:59.080Z,96597.25
2023-03-04T19:00:27.480Z,96613.00
2023-03-04T19:03:00.315Z,96610.00
2023-03-04T19:05:33.027Z,96612.97
2023-03-04T19:08:01.485Z,96618.91
2023-03-04T19:10:30.003Z,96617.97
2023-03-04T19:12:59.911Z,96620.59
2023-03-04T19:15:28.343Z,96627.47
2023-03-04T19:17:56.862Z,96622.34
2023-03-04T19:20:25.327Z,96627.16
2023-03-04T19:22:55.265Z,96632.91
2023-03-04T19:25:23.610Z,96620.66
2023-03-04T19:27:55.275Z,96625.78
2023-03-04T19:30:24.396Z,96621.94
2023-03-04T19:32:52.763Z,96632.19
2023-03-04T19:35:21.177Z,96628.59
2023-03-04T19:37:49.738Z,96632.06
2023-03-04T19:40:21.035Z,96628.59
2023-03-04T19:42:49.390Z,96625.03
2023-03-04T19:45:18.070Z,96612.75
2023-03-04T19:47:46.417Z,96613.38
2023-03-04T19:50:16.202Z,96613.88
2023-03-04T19:52:44.534Z,96614.59
2023-03-04T19:55:13.785Z,96616.94
2023-03-04T19:57:43.437Z,96611.59
2023-03-04T20:00:13.438Z,96606.94
2023-03-04T20:02:50.000Z,96620.16
2023-03-04T20:05:18.504Z,96623.78
2023-03-04T20:07:46.837Z,96616.16
2023-03-04T20:10:15.576Z,96620.34
2023-03-04T20:12:45.557Z,96619.38
2023-03-04T20:15:13.869Z,96612.84
2023-03-04T20:17:42.284Z,96612.03
2023-03-04T20:20:12.493Z,96615.34
2023-03-04T20:22:43.251Z,96612.16
2023-03-04T20:25:11.594Z,96606.44
2023-03-04T20:27:39.983Z,96606.06
2023-03-04T20:30:11.585Z,96603.94
2023-03-04T20:32:49.890Z,96606.56
2023-03-04T20:35:18.437Z,96611.53
2023-03-04T20:37:46.931Z,96607.97
2023-03-04T20:40:15.355Z,96611.19
2023-03-04T20:42:43.762Z,96609.38
2023-03-04T20:45:13.735Z,96608.31
2023-03-04T20:47:42.081Z,96607.34
2023-03-04T20:50:11.720Z,96606.78
2023-03-04T20:52:40.179Z,96595.50
2023-03-04T20:55:09.403Z,96607.06
2023-03-04T20:57:37.822Z,96598.94
2023-03-04T21:00:08.205Z,96601.56
2023-03-04T21:02:38.203Z,96598.94
2023-03-04T21:05:07.893Z,96602.97
2023-03-04T21:07:36.225Z,96601.06
2023-03-04T21:10:05.983Z,96593.81
2023-03-04T21:12:34.275Z,96602.06
2023-03-04T21:15:02.603Z,96596.22
2023-03-04T21:17:30.992Z,96593.59
2023-03-04T21:20:00.716Z,96599.66
2023-03-04T21:22:29.228Z,96592.19
2023-03-04T21:24:57.823Z,96593.88
2023-03-04T21:27:28.975Z,96594.56
2023-03-04T21:29:57.350Z,96599.66
2023-03-04T21:32:27.203Z,96590.88
2023-03-04T21:34:56.288Z,96591.81
2023-03-04T21:37:30.653Z,96578.97
2023-03-04T21:40:01.398Z,96593.00
2023-03-04T21:42:29.771Z,96594.69
2023-03-04T21:44:58.140Z,96588.88
2023-03-04T21:47:26.568Z,96592.19
2023-03-04T21:49:54.945Z,96588.88
2023-03-04T21:52:23.509Z,96590.88
2023-03-04T21:54:53.249Z,96593.03
2023-03-04T21:57:21.602Z,96591.00
2023-03-04T21:59:50.260Z,96593.28
2023-03-04T22:02:21.190Z,96589.69
2023-03-04T22:04:49.627Z,96586.00
2023-03-04T22:07:18.233Z,96583.41
2023-03-04T22:09:46.838Z,96587.19
2023-03-04T22:12:19.164Z,96574.94
2023-03-04T22:14:48.064Z,96576.59
2023-03-04T22:17:16.556Z,96572.91
2023-03-04T22:19:44.948Z,96575.88
2023-03-04T22:22:13.422Z,96580.69
2023-03-04T22:24:41.803Z,96575.19
2023-03-04T22:27:10.132Z,96575.31
2023-03-04T22:29:39.910Z,96572.25
2023-03-04T22:32:08.491Z,96573.56
2023-03-04T22:34:36.898Z,96573.34
2023-03-04T22:37:05.472Z,96570.00
2023-03-04T22:39:33.882Z,96560.47
2023-03-04T22:42:02.191Z,96565.50
2023-03-04T22:44:30.555Z,96570.47
2023-03-04T22:47:00.254Z,96567.63
2023-03-04T22:49:28.594Z,96569.91
2023-03-04T22:51:56.945Z,96568.59
2023-03-04T22:54:27.215Z,96556.94
2023-03-04T22:56:55.532Z,96559.91
2023-03-04T22:59:23.934Z,96558.22
2023-03-04T23:01:52.359Z,96555.75
2023-03-04T23:04:22.681Z,96558.38
2023-03-04T23:06:51.069Z,96558.38
2023-03-04T23:09:19.385Z,96560.84
2023-03-04T23:11:47.753Z,96558.69
2023-03-04T23:14:16.123Z,96565.00
2023-03-04T23:16:44.627Z,96566.22
2023-03-04T23:19:14.824Z,96558.00
2023-03-04T23:21:45.336Z,96553.50
2023-03-04T23:24:14.541Z,96562.28
2023-03-04T23:26:43.845Z,96558.13
2023-03-04T23:29:16.560Z,96560.97
2023-03-04T23:31:45.310Z,96554.56
2023-03-04T23:34:14.334Z,96548.63
2023-03-04T23:36:44.062Z,96544.31
2023-03-04T23:39:13.245Z,96544.69
2023-03-04T23:41:44.006Z,96542.06
2023-03-04T23:44:14.073Z,96536.22
2023-03-04T23:46:42.588Z,96535.41
2023-03-04T23:49:14.015Z,96532.91
2023-03-04T23:51:44.326Z,96527.81
2023-03-04T23:54:13.200Z,96540.28
2023-03-04T23:56:42.064Z,96529.81
2023-03-04T23:59:11.840Z,96524.59
